Time;durP1;ratioP1;P1;durP2;ratioP2;P2;SDS_P1;SDS_P2;PMS_P1;PMS_P2;Temp;Humidity;BMP_temperature;BMP_pressure;BME280_temperature;BME280_humidity;BME280_pressure;Samples;Min_cycle;Max_cycle;Signal;HPM_P1;HPM_P2
2021/04/16 00:00:15;;;;;;;5.97;5.47;;;;;;;;;;2092945;28;20175;-61
2021/04/16 00:01:16;;;;;;;5.60;5.10;;;;;;;;;;2092452;28;20206;-61
2021/04/16 00:02:16;;;;;;;6.07;4.77;;;;;;;;;;2092942;28;20178;-60
2021/04/16 00:03:17;;;;;;;5.90;5.40;;;;;;;;;;2101210;28;20553;-60
2021/04/16 00:04:17;;;;;;;8.03;5.43;;;;;;;;;;2100446;28;20170;-60
2021/04/16 00:05:18;;;;;;;7.03;4.97;;;;;;;;;;2090435;28;20169;-60
2021/04/16 00:06:18;;;;;;;5.87;5.27;;;;;;;;;;2093206;28;20172;-60
2021/04/16 00:07:18;;;;;;;5.07;4.60;;;;;;;;;;2091100;28;20167;-61
2021/04/16 00:08:21;;;;;;;6.80;5.53;;;;;;;;;;2093227;28;20236;-60
2021/04/16 00:09:25;;;;;;;6.30;5.17;;;;;;;;;;2093218;28;20175;-61
2021/04/16 00:10:33;;;;;;;6.13;5.60;;;;;;;;;;2094642;28;20175;-61
2021/04/16 00:11:34;;;;;;;11.47;5.60;;;;;;;;;;2087594;28;20183;-61
2021/04/16 00:12:34;;;;;;;5.90;5.20;;;;;;;;;;2094392;28;20195;-61
2021/04/16 00:13:35;;;;;;;8.47;5.23;;;;;;;;;;2091176;28;20176;-60
2021/04/16 00:14:35;;;;;;;6.13;5.20;;;;;;;;;;2090001;28;20247;-61
2021/04/16 00:15:36;;;;;;;7.47;5.57;;;;;;;;;;2093636;28;20179;-61
2021/04/16 00:16:37;;;;;;;8.97;5.43;;;;;;;;;;2094669;28;20691;-61
2021/04/16 00:17:37;;;;;;;5.93;5.43;;;;;;;;;;2093742;28;20175;-59
2021/04/16 00:18:38;;;;;;;6.70;5.40;;;;;;;;;;2093791;28;20187;-60
2021/04/16 00:19:38;;;;;;;6.07;5.40;;;;;;;;;;2092100;28;20192;-60
2021/04/16 00:20:39;;;;;;;5.13;4.63;;;;;;;;;;2091139;28;21278;-60
2021/04/16 00:21:39;;;;;;;9.30;5.40;;;;;;;;;;2091384;28;20176;-58
2021/04/16 00:22:40;;;;;;;10.67;5.43;;;;;;;;;;2089616;28;20176;-56
2021/04/16 00:23:40;;;;;;;5.53;5.03;;;;;;;;;;2092348;28;20176;-62
2021/04/16 00:24:40;;;;;;;6.07;5.23;;;;;;;;;;2089325;28;20184;-61
2021/04/16 00:25:40;;;;;;;6.03;5.23;;;;;;;;;;2086643;28;20187;-62
2021/04/16 00:26:41;;;;;;;6.23;5.60;;;;;;;;;;2076821;28;20165;-63
2021/04/16 00:27:42;;;;;;;6.43;5.57;;;;;;;;;;2090014;28;20258;-62
2021/04/16 00:28:42;;;;;;;6.17;5.33;;;;;;;;;;2092112;28;20286;-62
2021/04/16 00:29:42;;;;;;;7.57;5.17;;;;;;;;;;2090371;28;20190;-60
2021/04/16 00:30:48;;;;;;;5.87;5.30;;;;;;;;;;2092718;28;20293;-62
2021/04/16 00:31:51;;;;;;;8.87;5.47;;;;;;;;;;2093839;28;20190;-61
2021/04/16 00:32:51;;;;;;;7.30;5.47;;;;;;;;;;2090734;28;20175;-62
2021/04/16 00:33:52;;;;;;;7.33;5.30;;;;;;;;;;2084650;28;20350;-61
2021/04/16 00:34:52;;;;;;;7.40;5.33;;;;;;;;;;2080694;28;20184;-62
2021/04/16 00:35:52;;;;;;;6.93;5.57;;;;;;;;;;2092631;28;20235;-61
2021/04/16 00:36:53;;;;;;;7.53;5.57;;;;;;;;;;2092252;28;20359;-59
2021/04/16 00:37:54;;;;;;;7.53;5.23;;;;;;;;;;2094234;28;20171;-60
2021/04/16 00:38:54;;;;;;;8.77;5.97;;;;;;;;;;2093950;28;20224;-59
2021/04/16 00:39:54;;;;;;;8.97;5.80;;;;;;;;;;2093876;28;20172;-59
2021/04/16 00:40:56;;;;;;;7.53;5.60;;;;;;;;;;2093394;28;20227;-62
2021/04/16 00:41:57;;;;;;;7.00;5.17;;;;;;;;;;2094374;28;20168;-63
2021/04/16 00:42:58;;;;;;;9.10;7.80;;;;;;;;;;2094158;28;20202;-61
2021/04/16 00:43:59;;;;;;;8.60;5.93;;;;;;;;;;2093820;28;20687;-60
2021/04/16 00:44:59;;;;;;;7.83;5.53;;;;;;;;;;2090203;28;20261;-59
2021/04/16 00:46:08;;;;;;;7.13;5.63;;;;;;;;;;2095106;28;20213;-62
2021/04/16 00:47:13;;;;;;;7.47;6.30;;;;;;;;;;2093255;28;20164;-59
2021/04/16 00:48:33;;;;;;;6.73;5.60;;;;;;;;;;2091379;28;20183;-61
2021/04/16 00:49:39;;;;;;;6.30;5.03;;;;;;;;;;2091394;28;20651;-61
2021/04/16 00:50:39;;;;;;;7.43;5.53;;;;;;;;;;2095460;28;20178;-60
2021/04/16 00:51:44;;;;;;;6.37;5.77;;;;;;;;;;2092183;28;20179;-60
2021/04/16 00:52:45;;;;;;;10.93;5.53;;;;;;;;;;2089209;28;20656;-59
2021/04/16 00:53:45;;;;;;;6.03;5.47;;;;;;;;;;2095106;28;20182;-61
2021/04/16 00:54:45;;;;;;;7.97;5.23;;;;;;;;;;2094353;28;20179;-59
2021/04/16 00:55:46;;;;;;;5.07;4.67;;;;;;;;;;2095344;28;20170;-61
2021/04/16 00:56:47;;;;;;;7.10;5.40;;;;;;;;;;2086223;28;20207;-60
2021/04/16 00:57:47;;;;;;;6.90;5.40;;;;;;;;;;2096874;28;20182;-61
2021/04/16 00:58:48;;;;;;;5.63;5.03;;;;;;;;;;2096931;28;20207;-61
2021/04/16 00:59:52;;;;;;;8.33;6.13;;;;;;;;;;2093449;28;20246;-62
2021/04/16 01:00:53;;;;;;;5.97;5.47;;;;;;;;;;2091365;28;20222;-61
2021/04/16 01:01:55;;;;;;;6.90;5.90;;;;;;;;;;2095875;28;20183;-61
2021/04/16 01:02:55;;;;;;;5.47;4.93;;;;;;;;;;2100951;28;20862;-61
2021/04/16 01:03:55;;;;;;;5.20;4.70;;;;;;;;;;2094850;28;20192;-60
2021/04/16 01:04:56;;;;;;;5.63;5.13;;;;;;;;;;2093690;28;20168;-61
2021/04/16 01:05:57;;;;;;;6.53;5.20;;;;;;;;;;2095452;28;20698;-61
2021/04/16 01:06:58;;;;;;;7.63;5.30;;;;;;;;;;2096597;28;20214;-59
2021/04/16 01:07:58;;;;;;;7.63;6.00;;;;;;;;;;2086650;28;20561;-61
2021/04/16 01:08:59;;;;;;;5.90;5.40;;;;;;;;;;2084172;28;20238;-61
2021/04/16 01:09:59;;;;;;;9.53;5.67;;;;;;;;;;2094262;28;20199;-60
2021/04/16 01:11:00;;;;;;;8.47;5.63;;;;;;;;;;2097519;28;20198;-59
2021/04/16 01:12:06;;;;;;;6.00;5.50;;;;;;;;;;2095327;28;20172;-60
2021/04/16 01:31:32;;;;;;;11.93;7.23;;;;;;;;;;2096092;28;20156;-58
2021/04/16 01:32:35;;;;;;;7.03;6.27;;;;;;;;;;2092032;28;20167;-59
2021/04/16 01:33:35;;;;;;;7.03;5.40;;;;;;;;;;2094677;28;20183;-58
2021/04/16 01:34:36;;;;;;;8.87;5.87;;;;;;;;;;2094138;28;20182;-60
2021/04/16 01:35:36;;;;;;;9.23;6.30;;;;;;;;;;2094465;28;20179;-57
2021/04/16 01:36:36;;;;;;;6.77;6.07;;;;;;;;;;2092349;28;20164;-58
2021/04/16 01:37:37;;;;;;;8.20;6.50;;;;;;;;;;2094591;28;20188;-58
2021/04/16 01:38:37;;;;;;;7.43;6.73;;;;;;;;;;2094804;28;20196;-58
2021/04/16 01:39:37;;;;;;;7.33;6.73;;;;;;;;;;2093940;28;20180;-57
2021/04/16 01:40:38;;;;;;;7.67;6.40;;;;;;;;;;2094630;28;20155;-59
2021/04/16 01:41:38;;;;;;;7.73;6.17;;;;;;;;;;2093543;28;20194;-59
2021/04/16 01:42:39;;;;;;;7.23;6.63;;;;;;;;;;2094967;28;20231;-57
2021/04/16 01:43:40;;;;;;;6.83;6.27;;;;;;;;;;2092461;28;20179;-61
2021/04/16 01:44:42;;;;;;;7.43;6.70;;;;;;;;;;2090444;28;20263;-61
2021/04/16 01:45:42;;;;;;;8.53;6.33;;;;;;;;;;2094268;28;20200;-60
2021/04/16 01:46:50;;;;;;;8.50;6.17;;;;;;;;;;2094957;28;20174;-60
2021/04/16 01:48:01;;;;;;;7.63;6.70;;;;;;;;;;2094695;28;20175;-60
2021/04/16 01:49:01;;;;;;;7.20;6.57;;;;;;;;;;2093126;28;20168;-61
2021/04/16 01:50:02;;;;;;;7.00;6.40;;;;;;;;;;2093938;28;20267;-62
2021/04/16 01:51:03;;;;;;;8.47;7.70;;;;;;;;;;2095686;28;20191;-61
2021/04/16 01:52:04;;;;;;;9.87;6.90;;;;;;;;;;2094031;28;20179;-61
2021/04/16 01:53:05;;;;;;;7.30;6.60;;;;;;;;;;2094909;28;20633;-60
2021/04/16 01:54:08;;;;;;;9.63;6.90;;;;;;;;;;2093362;28;20206;-62
2021/04/16 01:55:09;;;;;;;8.67;6.83;;;;;;;;;;2094964;28;20200;-61
2021/04/16 01:56:09;;;;;;;8.30;7.40;;;;;;;;;;2094457;28;20175;-59
2021/04/16 01:57:12;;;;;;;8.77;7.27;;;;;;;;;;2091497;28;20211;-62
2021/04/16 01:58:12;;;;;;;9.00;7.70;;;;;;;;;;2098101;28;20175;-61
2021/04/16 01:59:14;;;;;;;12.67;7.83;;;;;;;;;;2101624;28;20258;-61
2021/04/16 02:00:17;;;;;;;7.83;7.00;;;;;;;;;;2094021;28;20174;-61
2021/04/16 02:01:17;;;;;;;8.47;7.47;;;;;;;;;;2092859;28;20214;-61
2021/04/16 02:02:22;;;;;;;8.73;7.63;;;;;;;;;;2092464;28;20170;-61
2021/04/16 02:03:23;;;;;;;10.97;8.50;;;;;;;;;;2094814;28;20318;-61
2021/04/16 02:04:23;;;;;;;11.90;8.27;;;;;;;;;;2093635;28;20266;-62
2021/04/16 02:05:24;;;;;;;9.20;8.40;;;;;;;;;;2083405;28;20192;-60
2021/04/16 02:06:24;;;;;;;8.73;7.83;;;;;;;;;;2085301;28;20191;-61
2021/04/16 02:07:25;;;;;;;8.90;8.10;;;;;;;;;;2091304;28;20832;-61
2021/04/16 02:08:25;;;;;;;8.63;7.70;;;;;;;;;;2091577;28;20234;-60
2021/04/16 02:09:28;;;;;;;13.53;7.20;;;;;;;;;;2091843;28;20177;-61
2021/04/16 02:10:28;;;;;;;9.67;8.03;;;;;;;;;;2094753;28;20176;-61
2021/04/16 02:11:28;;;;;;;8.43;7.57;;;;;;;;;;2091861;28;20179;-62
2021/04/16 02:12:28;;;;;;;8.77;7.90;;;;;;;;;;2094313;28;20211;-61
2021/04/16 02:13:28;;;;;;;8.80;7.00;;;;;;;;;;2093438;28;20167;-59
2021/04/16 02:14:29;;;;;;;8.40;7.60;;;;;;;;;;2092130;28;20184;-61
2021/04/16 02:15:30;;;;;;;9.13;8.27;;;;;;;;;;2091987;28;20183;-61
2021/04/16 02:16:30;;;;;;;8.60;7.40;;;;;;;;;;2091326;28;20297;-62
2021/04/16 02:17:30;;;;;;;10.13;7.23;;;;;;;;;;2093603;28;20175;-62
2021/04/16 02:18:30;;;;;;;8.03;7.33;;;;;;;;;;2094452;28;20225;-62
2021/04/16 02:19:31;;;;;;;9.27;7.80;;;;;;;;;;2093452;28;20187;-62
2021/04/16 02:20:31;;;;;;;10.00;6.90;;;;;;;;;;2092656;28;20168;-62
2021/04/16 02:21:31;;;;;;;8.27;7.23;;;;;;;;;;2089252;28;20262;-61
2021/04/16 02:22:32;;;;;;;10.13;7.80;;;;;;;;;;2093278;28;20651;-62
2021/04/16 02:23:32;;;;;;;9.00;6.83;;;;;;;;;;2091665;28;20270;-61
2021/04/16 02:24:32;;;;;;;10.70;7.83;;;;;;;;;;2090577;28;20176;-61
2021/04/16 02:25:33;;;;;;;8.27;7.23;;;;;;;;;;2088528;28;20168;-61
2021/04/16 02:26:33;;;;;;;7.47;6.83;;;;;;;;;;2092932;28;20176;-61
2021/04/16 02:27:33;;;;;;;8.43;7.53;;;;;;;;;;2092971;28;20175;-60
2021/04/16 02:28:33;;;;;;;8.60;7.20;;;;;;;;;;2092064;28;20167;-60
2021/04/16 02:29:37;;;;;;;8.60;7.80;;;;;;;;;;2087788;28;20584;-61
2021/04/16 02:30:37;;;;;;;8.00;7.23;;;;;;;;;;2085537;28;20698;-61
2021/04/16 02:31:42;;;;;;;9.40;7.63;;;;;;;;;;2085804;28;20249;-61
2021/04/16 02:32:42;;;;;;;8.47;7.67;;;;;;;;;;2093609;28;20179;-61
2021/04/16 02:33:43;;;;;;;8.77;7.50;;;;;;;;;;2091935;28;20187;-62
2021/04/16 02:34:43;;;;;;;8.90;8.00;;;;;;;;;;2091450;28;20212;-62
2021/04/16 02:35:44;;;;;;;8.33;7.40;;;;;;;;;;2095459;28;20187;-61
2021/04/16 02:36:44;;;;;;;7.93;7.23;;;;;;;;;;2093999;28;20194;-61
2021/04/16 02:37:45;;;;;;;8.03;7.23;;;;;;;;;;2094698;28;20221;-62
2021/04/16 02:38:45;;;;;;;8.70;7.80;;;;;;;;;;2094990;28;20183;-62
2021/04/16 02:39:45;;;;;;;8.70;7.70;;;;;;;;;;2095669;28;20175;-61
2021/04/16 02:40:46;;;;;;;7.67;7.07;;;;;;;;;;2092878;28;20186;-62
2021/04/16 02:41:46;;;;;;;8.87;7.47;;;;;;;;;;2092503;28;20179;-61
2021/04/16 02:42:47;;;;;;;8.37;7.57;;;;;;;;;;2091891;28;20210;-60
2021/04/16 02:43:49;;;;;;;8.27;7.57;;;;;;;;;;2092724;28;20164;-62
2021/04/16 02:44:49;;;;;;;8.60;7.80;;;;;;;;;;2092176;28;20174;-61
2021/04/16 02:45:50;;;;;;;8.43;7.73;;;;;;;;;;2093593;28;20547;-63
2021/04/16 02:46:51;;;;;;;8.73;7.90;;;;;;;;;;2095195;28;20182;-62
2021/04/16 02:47:51;;;;;;;9.23;8.33;;;;;;;;;;2091356;28;20180;-60
2021/04/16 02:48:51;;;;;;;10.30;7.67;;;;;;;;;;2094744;28;20279;-62
2021/04/16 02:49:52;;;;;;;11.73;7.90;;;;;;;;;;2090732;28;20170;-61
2021/04/16 02:50:52;;;;;;;8.40;7.70;;;;;;;;;;2094975;28;20199;-61
2021/04/16 02:51:53;;;;;;;8.30;7.50;;;;;;;;;;2091816;28;20206;-61
2021/04/16 02:52:53;;;;;;;8.30;7.60;;;;;;;;;;2094722;28;20206;-60
2021/04/16 02:53:54;;;;;;;8.37;7.53;;;;;;;;;;2085736;28;20226;-62
2021/04/16 02:54:54;;;;;;;9.93;7.47;;;;;;;;;;2091890;28;20255;-62
2021/04/16 02:55:54;;;;;;;8.47;7.67;;;;;;;;;;2093740;28;20164;-62
2021/04/16 02:56:55;;;;;;;9.07;7.73;;;;;;;;;;2092026;28;20666;-63
2021/04/16 02:57:55;;;;;;;10.53;7.67;;;;;;;;;;2093593;28;20202;-62
2021/04/16 02:58:57;;;;;;;8.70;7.80;;;;;;;;;;2094035;28;20192;-62
2021/04/16 02:59:57;;;;;;;9.90;7.80;;;;;;;;;;2094993;28;20584;-60
2021/04/16 03:00:58;;;;;;;8.63;7.57;;;;;;;;;;2094193;28;20252;-60
2021/04/16 03:01:58;;;;;;;8.23;7.53;;;;;;;;;;2095947;28;20186;-60
2021/04/16 03:02:58;;;;;;;8.13;7.43;;;;;;;;;;2095490;28;20191;-60
2021/04/16 03:03:59;;;;;;;9.07;8.13;;;;;;;;;;2093984;28;20278;-60
2021/04/16 03:04:59;;;;;;;8.73;7.93;;;;;;;;;;2089381;28;20200;-61
2021/04/16 03:05:59;;;;;;;8.97;7.40;;;;;;;;;;2094660;28;20164;-61
2021/04/16 03:06:59;;;;;;;9.70;7.90;;;;;;;;;;2093488;28;20230;-60
2021/04/16 03:08:00;;;;;;;8.03;7.43;;;;;;;;;;2092161;28;20172;-61
2021/04/16 03:09:03;;;;;;;9.97;8.00;;;;;;;;;;2084686;28;20195;-61
2021/04/16 03:10:06;;;;;;;9.03;8.03;;;;;;;;;;2083968;28;20173;-61
2021/04/16 03:11:07;;;;;;;8.73;7.80;;;;;;;;;;2094632;28;20218;-60
2021/04/16 03:12:07;;;;;;;8.73;7.43;;;;;;;;;;2093196;28;20171;-61
2021/04/16 03:13:07;;;;;;;8.77;7.90;;;;;;;;;;2093822;28;20206;-61
2021/04/16 03:14:08;;;;;;;12.03;8.20;;;;;;;;;;2094825;28;20195;-59
2021/04/16 03:15:09;;;;;;;8.63;7.83;;;;;;;;;;2091594;28;20203;-61
2021/04/16 03:16:09;;;;;;;8.50;7.67;;;;;;;;;;2096346;28;20395;-62
2021/04/16 03:17:10;;;;;;;9.10;8.20;;;;;;;;;;2095633;28;20190;-62
2021/04/16 03:18:10;;;;;;;8.40;7.70;;;;;;;;;;2096220;28;20207;-62
2021/04/16 03:19:11;;;;;;;9.10;7.60;;;;;;;;;;2095595;28;20194;-63
2021/04/16 03:20:12;;;;;;;8.83;8.00;;;;;;;;;;2092845;28;20198;-62
2021/04/16 03:21:12;;;;;;;8.00;7.30;;;;;;;;;;2092252;28;20227;-62
2021/04/16 03:22:12;;;;;;;9.70;8.60;;;;;;;;;;2093966;28;20199;-61
2021/04/16 03:23:13;;;;;;;9.40;7.80;;;;;;;;;;2091246;28;20183;-60
2021/04/16 03:24:13;;;;;;;8.43;7.63;;;;;;;;;;2092013;28;20182;-63
2021/04/16 03:25:14;;;;;;;8.40;7.60;;;;;;;;;;2090520;28;20774;-63
2021/04/16 03:26:15;;;;;;;9.53;7.67;;;;;;;;;;2094107;28;20172;-62
2021/04/16 03:27:15;;;;;;;8.70;7.90;;;;;;;;;;2094079;28;20199;-62
2021/04/16 03:28:15;;;;;;;8.33;7.53;;;;;;;;;;2094733;28;20192;-62
2021/04/16 03:29:16;;;;;;;9.37;8.47;;;;;;;;;;2092550;28;20175;-62
2021/04/16 03:30:18;;;;;;;9.10;8.20;;;;;;;;;;2094926;28;20167;-62
2021/04/16 03:31:19;;;;;;;9.53;7.47;;;;;;;;;;2094925;28;20211;-63
2021/04/16 03:32:19;;;;;;;9.10;7.90;;;;;;;;;;2094333;28;20254;-63
2021/04/16 03:33:19;;;;;;;8.60;7.83;;;;;;;;;;2094119;28;20257;-61
2021/04/16 03:34:19;;;;;;;9.27;8.23;;;;;;;;;;2090518;28;20644;-62
2021/04/16 03:35:20;;;;;;;7.77;7.03;;;;;;;;;;2090345;28;20192;-61
2021/04/16 03:36:21;;;;;;;13.83;8.43;;;;;;;;;;2091189;28;20186;-61
2021/04/16 03:37:21;;;;;;;10.37;8.40;;;;;;;;;;2094455;28;20171;-62
2021/04/16 03:38:21;;;;;;;9.80;8.33;;;;;;;;;;2093160;28;20595;-61
2021/04/16 03:39:22;;;;;;;9.23;7.87;;;;;;;;;;2093519;28;20201;-61
2021/04/16 03:40:27;;;;;;;8.80;8.10;;;;;;;;;;2092978;28;20164;-63
2021/04/16 03:41:27;;;;;;;8.23;7.53;;;;;;;;;;2095825;28;20191;-61
2021/04/16 03:42:27;;;;;;;10.23;9.10;;;;;;;;;;2102572;28;20166;-59
2021/04/16 03:43:28;;;;;;;9.13;8.23;;;;;;;;;;2093605;28;20178;-61
2021/04/16 03:44:28;;;;;;;10.77;8.37;;;;;;;;;;2093761;28;20521;-60
2021/04/16 03:45:28;;;;;;;11.13;8.50;;;;;;;;;;2092152;28;20243;-59
2021/04/16 03:46:29;;;;;;;9.43;7.80;;;;;;;;;;2093630;28;20187;-61
2021/04/16 03:47:29;;;;;;;9.20;8.40;;;;;;;;;;2077833;28;20336;-61
2021/04/16 03:48:29;;;;;;;9.17;8.37;;;;;;;;;;2085787;28;20240;-61
2021/04/16 03:49:30;;;;;;;13.47;8.17;;;;;;;;;;2092783;28;20226;-59
2021/04/16 03:50:31;;;;;;;9.53;8.20;;;;;;;;;;2094856;28;20175;-61
2021/04/16 03:51:45;;;;;;;8.83;7.77;;;;;;;;;;2094641;28;20175;-59
2021/04/16 03:52:46;;;;;;;8.53;7.73;;;;;;;;;;2094453;28;20163;-61
2021/04/16 03:53:46;;;;;;;9.20;7.97;;;;;;;;;;2093738;28;20180;-60
2021/04/16 03:54:46;;;;;;;9.33;7.57;;;;;;;;;;2089688;28;20171;-61
2021/04/16 03:55:47;;;;;;;9.53;8.63;;;;;;;;;;2094382;28;20651;-61
2021/04/16 03:56:47;;;;;;;9.37;8.57;;;;;;;;;;2094252;28;20206;-61
2021/04/16 03:57:48;;;;;;;8.83;8.03;;;;;;;;;;2094383;28;20178;-60
2021/04/16 03:58:48;;;;;;;12.73;8.20;;;;;;;;;;2093712;28;20584;-61
2021/04/16 03:59:49;;;;;;;9.10;8.40;;;;;;;;;;2093824;28;20725;-60
2021/04/16 04:00:50;;;;;;;9.40;7.97;;;;;;;;;;2089513;28;20203;-61
2021/04/16 04:01:51;;;;;;;9.10;7.83;;;;;;;;;;2094156;28;20188;-62
2021/04/16 04:02:51;;;;;;;8.47;7.67;;;;;;;;;;2093449;28;20596;-60
2021/04/16 04:03:52;;;;;;;9.37;7.83;;;;;;;;;;2094135;28;20186;-60
2021/04/16 04:04:52;;;;;;;8.43;7.63;;;;;;;;;;2091668;28;20385;-61
2021/04/16 04:05:53;;;;;;;10.00;7.80;;;;;;;;;;2094883;28;20206;-61
2021/04/16 04:06:53;;;;;;;8.90;8.07;;;;;;;;;;2088391;28;20718;-61
2021/04/16 04:07:53;;;;;;;8.33;7.73;;;;;;;;;;2091114;28;20171;-61
2021/04/16 04:08:54;;;;;;;9.07;8.13;;;;;;;;;;2090446;28;20213;-60
2021/04/16 04:09:54;;;;;;;9.20;8.27;;;;;;;;;;2090781;28;20283;-61
2021/04/16 04:10:54;;;;;;;10.30;8.20;;;;;;;;;;2093398;28;20278;-61
2021/04/16 04:11:54;;;;;;;9.40;8.40;;;;;;;;;;2091814;28;20209;-61
2021/04/16 04:12:55;;;;;;;9.47;7.80;;;;;;;;;;2093793;28;20232;-60
2021/04/16 04:13:56;;;;;;;8.83;8.00;;;;;;;;;;2093727;28;20176;-60
2021/04/16 04:14:56;;;;;;;10.80;8.60;;;;;;;;;;2093140;28;20214;-61
2021/04/16 04:15:56;;;;;;;9.33;8.27;;;;;;;;;;2085143;28;20215;-59
2021/04/16 04:16:58;;;;;;;8.63;7.70;;;;;;;;;;2093172;28;20189;-60
2021/04/16 04:17:59;;;;;;;10.07;8.00;;;;;;;;;;2090723;28;20176;-60
2021/04/16 04:18:59;;;;;;;10.87;7.97;;;;;;;;;;2093920;28;20272;-60
2021/04/16 04:19:59;;;;;;;9.10;8.20;;;;;;;;;;2090210;28;20225;-61
2021/04/16 04:21:00;;;;;;;8.80;8.00;;;;;;;;;;2093465;28;20274;-60
2021/04/16 04:22:00;;;;;;;9.40;8.03;;;;;;;;;;2094254;28;20195;-61
2021/04/16 04:23:02;;;;;;;8.90;8.20;;;;;;;;;;2094235;28;20660;-60
2021/04/16 04:24:02;;;;;;;9.60;8.70;;;;;;;;;;2091539;28;20175;-61
2021/04/16 04:25:02;;;;;;;9.57;8.67;;;;;;;;;;2089992;28;20242;-60
2021/04/16 04:26:03;;;;;;;10.27;9.30;;;;;;;;;;2093815;28;20210;-60
2021/04/16 04:27:03;;;;;;;9.33;8.53;;;;;;;;;;2094326;28;20167;-61
2021/04/16 04:28:04;;;;;;;8.90;8.10;;;;;;;;;;2093151;28;20156;-57
2021/04/16 04:29:05;;;;;;;9.57;8.67;;;;;;;;;;2084455;28;20204;-60
2021/04/16 04:30:06;;;;;;;9.43;8.40;;;;;;;;;;2090058;28;20221;-59
2021/04/16 04:31:06;;;;;;;9.73;8.83;;;;;;;;;;2089463;28;20195;-58
2021/04/16 04:32:07;;;;;;;10.97;9.10;;;;;;;;;;2083972;28;20576;-60
2021/04/16 04:33:08;;;;;;;9.80;8.93;;;;;;;;;;2082574;28;20203;-61
2021/04/16 04:34:08;;;;;;;9.33;8.53;;;;;;;;;;2088063;28;20306;-60
2021/04/16 04:35:08;;;;;;;10.40;9.47;;;;;;;;;;2089060;28;20583;-62
2021/04/16 04:36:09;;;;;;;9.90;8.97;;;;;;;;;;2089411;28;20183;-61
2021/04/16 04:37:09;;;;;;;8.80;7.90;;;;;;;;;;2087106;28;20188;-61
2021/04/16 04:38:10;;;;;;;10.23;9.20;;;;;;;;;;2089096;28;20648;-61
2021/04/16 04:39:12;;;;;;;9.50;8.60;;;;;;;;;;2089470;28;20215;-60
2021/04/16 04:40:13;;;;;;;10.13;9.03;;;;;;;;;;2086782;28;20180;-61
2021/04/16 04:41:13;;;;;;;10.67;9.37;;;;;;;;;;2088592;28;20274;-62
2021/04/16 04:42:13;;;;;;;14.67;9.30;;;;;;;;;;2089602;28;20657;-62
2021/04/16 04:43:13;;;;;;;10.33;9.40;;;;;;;;;;2088477;28;20183;-60
2021/04/16 04:44:14;;;;;;;9.70;8.63;;;;;;;;;;2080174;28;20206;-59
2021/04/16 04:45:15;;;;;;;11.53;9.40;;;;;;;;;;2078868;28;20322;-59
2021/04/16 04:46:15;;;;;;;12.27;9.70;;;;;;;;;;2088824;28;20179;-60
2021/04/16 04:47:15;;;;;;;11.07;9.90;;;;;;;;;;2089344;28;20250;-60
2021/04/16 04:48:16;;;;;;;11.77;9.10;;;;;;;;;;2089304;28;20207;-62
2021/04/16 04:49:16;;;;;;;9.57;8.60;;;;;;;;;;2087268;28;20250;-60
2021/04/16 04:50:17;;;;;;;10.47;9.33;;;;;;;;;;2087161;28;20203;-61
2021/04/16 04:51:18;;;;;;;11.00;9.00;;;;;;;;;;2080275;28;20684;-62
2021/04/16 04:52:23;;;;;;;10.23;9.23;;;;;;;;;;2071878;28;20248;-60
2021/04/16 04:53:23;;;;;;;10.00;9.10;;;;;;;;;;2088381;28;20254;-62
2021/04/16 04:54:23;;;;;;;10.57;9.43;;;;;;;;;;2084843;28;20171;-61
2021/04/16 04:55:26;;;;;;;10.10;9.13;;;;;;;;;;2088125;28;20179;-62
2021/04/16 04:56:26;;;;;;;9.90;8.90;;;;;;;;;;2084819;28;20227;-62
2021/04/16 04:57:28;;;;;;;10.30;9.30;;;;;;;;;;2087819;28;20164;-60
2021/04/16 04:58:28;;;;;;;10.37;9.27;;;;;;;;;;2087978;28;20695;-62
2021/04/16 04:59:28;;;;;;;9.90;9.00;;;;;;;;;;2088195;28;20257;-61
2021/04/16 05:00:29;;;;;;;10.10;8.50;;;;;;;;;;2088188;28;20187;-61
2021/04/16 05:01:29;;;;;;;9.07;8.23;;;;;;;;;;2104887;22;20279;-57
2021/04/16 05:02:29;;;;;;;9.50;8.60;;;;;;;;;;2098641;28;20235;-56
2021/04/16 05:03:29;;;;;;;9.57;8.73;;;;;;;;;;2101750;28;20181;-58
2021/04/16 05:04:30;;;;;;;10.03;9.03;;;;;;;;;;2101846;28;20209;-57
2021/04/16 05:05:30;;;;;;;9.17;8.23;;;;;;;;;;2098553;28;20736;-58
2021/04/16 05:06:30;;;;;;;9.90;8.93;;;;;;;;;;2101402;28;20600;-58
2021/04/16 05:07:31;;;;;;;11.23;9.60;;;;;;;;;;2101715;28;20170;-58
2021/04/16 05:08:31;;;;;;;9.83;8.90;;;;;;;;;;2097033;28;20180;-58
2021/04/16 05:09:31;;;;;;;10.30;9.00;;;;;;;;;;2099079;28;20175;-59
2021/04/16 05:10:32;;;;;;;12.00;9.00;;;;;;;;;;2100072;28;20199;-58
2021/04/16 05:11:32;;;;;;;9.80;8.83;;;;;;;;;;2098318;28;20225;-59
2021/04/16 05:12:32;;;;;;;10.50;8.80;;;;;;;;;;2093892;28;20199;-56
2021/04/16 05:13:33;;;;;;;10.23;9.23;;;;;;;;;;2097453;28;20167;-61
2021/04/16 05:14:33;;;;;;;10.50;8.60;;;;;;;;;;2093944;28;20222;-56
2021/04/16 05:15:33;;;;;;;9.27;8.33;;;;;;;;;;2094261;28;20199;-59
2021/04/16 05:16:34;;;;;;;10.40;9.37;;;;;;;;;;2096642;28;20753;-56
2021/04/16 05:17:34;;;;;;;8.97;8.17;;;;;;;;;;2095305;28;20183;-56
2021/04/16 05:18:37;;;;;;;9.63;8.63;;;;;;;;;;2097578;28;20210;-55
2021/04/16 05:19:37;;;;;;;10.03;9.03;;;;;;;;;;2092768;28;20171;-58
2021/04/16 05:20:38;;;;;;;10.97;9.13;;;;;;;;;;2096355;28;20183;-58
2021/04/16 05:21:39;;;;;;;11.13;8.60;;;;;;;;;;2095862;28;20227;-59
2021/04/16 05:22:39;;;;;;;12.03;8.47;;;;;;;;;;2095580;28;20178;-59
2021/04/16 05:23:40;;;;;;;10.70;8.20;;;;;;;;;;2096624;28;20178;-58
2021/04/16 05:24:41;;;;;;;9.43;8.53;;;;;;;;;;2095110;28;20176;-59
2021/04/16 05:25:41;;;;;;;9.43;8.63;;;;;;;;;;2096837;28;20648;-56
2021/04/16 05:26:41;;;;;;;12.47;8.87;;;;;;;;;;2095938;28;20172;-59
2021/04/16 05:27:41;;;;;;;11.27;8.50;;;;;;;;;;2094819;28;20250;-59
2021/04/16 05:28:42;;;;;;;12.93;8.60;;;;;;;;;;2092874;28;20556;-58
2021/04/16 05:29:42;;;;;;;12.50;9.80;;;;;;;;;;2092245;28;20282;-57
2021/04/16 05:30:42;;;;;;;10.30;9.27;;;;;;;;;;2095884;28;20167;-57
2021/04/16 05:31:43;;;;;;;10.73;9.27;;;;;;;;;;2094189;28;20358;-56
2021/04/16 05:32:45;;;;;;;11.83;9.07;;;;;;;;;;2099003;28;20177;-59
2021/04/16 05:33:45;;;;;;;9.03;8.13;;;;;;;;;;2096127;28;20919;-58
2021/04/16 05:34:45;;;;;;;11.50;9.33;;;;;;;;;;2093451;28;20298;-55
2021/04/16 05:35:46;;;;;;;10.50;9.50;;;;;;;;;;2094371;28;20698;-58
2021/04/16 05:36:47;;;;;;;8.83;8.00;;;;;;;;;;2095676;28;20660;-58
2021/04/16 05:37:48;;;;;;;11.60;8.73;;;;;;;;;;2096213;28;20167;-57
2021/04/16 05:38:48;;;;;;;10.93;9.10;;;;;;;;;;2095337;28;20317;-57
2021/04/16 05:39:51;;;;;;;12.67;9.03;;;;;;;;;;2095285;28;20733;-57
2021/04/16 05:40:51;;;;;;;13.17;9.53;;;;;;;;;;2098987;28;20186;-56
2021/04/16 05:41:52;;;;;;;9.93;8.83;;;;;;;;;;2098527;28;20291;-59
2021/04/16 05:42:52;;;;;;;10.13;8.77;;;;;;;;;;2098036;28;20297;-56
2021/04/16 05:43:52;;;;;;;11.33;9.13;;;;;;;;;;2095955;28;20183;-60
2021/04/16 05:44:54;;;;;;;9.93;8.93;;;;;;;;;;2097203;28;20208;-59
2021/04/16 05:45:54;;;;;;;11.40;8.50;;;;;;;;;;2094860;28;20168;-56
2021/04/16 05:46:54;;;;;;;9.90;8.67;;;;;;;;;;2097049;28;20159;-59
2021/04/16 05:47:55;;;;;;;9.53;8.53;;;;;;;;;;2094386;28;20642;-57
2021/04/16 05:48:55;;;;;;;10.97;8.63;;;;;;;;;;2096759;28;20230;-58
2021/04/16 05:49:55;;;;;;;10.87;8.97;;;;;;;;;;2097003;28;20180;-58
2021/04/16 05:50:56;;;;;;;14.33;9.07;;;;;;;;;;2097197;28;20170;-55
2021/04/16 05:51:56;;;;;;;10.87;8.97;;;;;;;;;;2096721;28;20171;-59
2021/04/16 05:53:02;;;;;;;10.50;8.67;;;;;;;;;;2098232;28;20579;-58
2021/04/16 05:54:02;;;;;;;11.07;8.63;;;;;;;;;;2101977;28;20179;-58
2021/04/16 05:55:03;;;;;;;12.27;8.20;;;;;;;;;;2093596;28;20202;-57
2021/04/16 05:56:04;;;;;;;9.47;8.57;;;;;;;;;;2096313;28;20182;-59
2021/04/16 05:57:05;;;;;;;9.67;8.70;;;;;;;;;;2094765;28;20182;-61
2021/04/16 05:58:05;;;;;;;9.77;8.80;;;;;;;;;;2095452;28;20595;-58
2021/04/16 05:59:05;;;;;;;11.23;8.53;;;;;;;;;;2095809;28;20199;-58
2021/04/16 06:00:07;;;;;;;10.53;9.60;;;;;;;;;;2096360;28;20262;-58
2021/04/16 06:01:09;;;;;;;9.77;8.90;;;;;;;;;;2096597;28;20655;-59
2021/04/16 06:02:29;;;;;;;9.57;8.67;;;;;;;;;;2096880;28;20166;-59
2021/04/16 06:03:30;;;;;;;9.90;8.90;;;;;;;;;;2096005;28;20222;-59
2021/04/16 06:04:31;;;;;;;12.57;9.53;;;;;;;;;;2097495;28;20178;-59
2021/04/16 06:05:31;;;;;;;9.00;8.10;;;;;;;;;;2096495;28;20178;-58
2021/04/16 06:06:31;;;;;;;11.43;8.37;;;;;;;;;;2096893;28;20172;-58
2021/04/16 06:07:32;;;;;;;10.47;9.40;;;;;;;;;;2096319;28;20604;-57
2021/04/16 06:08:32;;;;;;;9.03;8.13;;;;;;;;;;2096986;28;20179;-59
2021/04/16 06:09:32;;;;;;;10.87;8.37;;;;;;;;;;2094615;28;20182;-59
2021/04/16 06:10:33;;;;;;;11.00;7.97;;;;;;;;;;2094354;28;20188;-59
2021/04/16 06:11:33;;;;;;;9.27;8.37;;;;;;;;;;2096852;28;20550;-59
2021/04/16 06:12:34;;;;;;;10.33;8.60;;;;;;;;;;2099269;28;20225;-58
2021/04/16 06:13:36;;;;;;;8.80;8.00;;;;;;;;;;2095792;28;20188;-59
2021/04/16 06:14:37;;;;;;;9.97;8.40;;;;;;;;;;2089147;28;20176;-59
2021/04/16 06:15:37;;;;;;;8.20;7.43;;;;;;;;;;2088516;28;20629;-60
2021/04/16 06:16:38;;;;;;;11.20;8.33;;;;;;;;;;2094339;28;20210;-59
2021/04/16 06:17:38;;;;;;;11.57;8.53;;;;;;;;;;2097100;28;20213;-60
2021/04/16 06:18:38;;;;;;;8.87;7.97;;;;;;;;;;2096245;28;20183;-59
2021/04/16 06:19:39;;;;;;;9.20;7.88;;;;;;;;;;2088995;28;20179;-58
2021/04/16 06:20:39;;;;;;;8.77;7.80;;;;;;;;;;2095149;28;20164;-60
2021/04/16 06:21:39;;;;;;;12.32;8.10;;;;;;;;;;2096432;28;20200;-59
2021/04/16 06:22:40;;;;;;;9.50;8.30;;;;;;;;;;2097746;28;20206;-57